Time;durP1;ratioP1;P1;durP2;ratioP2;P2;SDS_P1;SDS_P2;PMS_P1;PMS_P2;Temp;Humidity;BMP_temperature;BMP_pressure;BME280_temperature;BME280_humidity;BME280_pressure;Samples;Min_cycle;Max_cycle;Signal;HPM_P1;HPM_P2
2022/08/23 00:01:38;;;;;;;19.02;9.68;;;;;;;;;;5034208;28;20138;-79
2022/08/23 00:04:07;;;;;;;15.93;8.75;;;;;;;;;;5068219;28;20294;-79
2022/08/23 00:06:33;;;;;;;12.20;8.52;;;;;;;;;;5047452;28;20037;-78
2022/08/23 00:08:59;;;;;;;15.65;8.30;;;;;;;;;;5075040;28;20040;-79
2022/08/23 00:11:36;;;;;;;16.73;9.13;;;;;;;;;;5075954;28;20055;-78
2022/08/23 00:14:05;;;;;;;14.35;8.55;;;;;;;;;;5073524;28;20056;-79
2022/08/23 00:16:31;;;;;;;15.82;9.68;;;;;;;;;;5056448;28;20073;-79
2022/08/23 00:18:57;;;;;;;15.15;10.13;;;;;;;;;;5074645;28;20040;-79
2022/08/23 00:21:23;;;;;;;17.55;8.68;;;;;;;;;;5076194;28;20056;-79
2022/08/23 00:23:50;;;;;;;13.32;7.93;;;;;;;;;;5073712;28;20059;-78
2022/08/23 00:26:16;;;;;;;13.63;8.20;;;;;;;;;;5074184;28;20552;-79
2022/08/23 00:28:42;;;;;;;12.80;7.90;;;;;;;;;;5070999;28;20040;-78
2022/08/23 00:31:08;;;;;;;13.20;7.90;;;;;;;;;;5075633;28;20375;-79
2022/08/23 00:33:34;;;;;;;11.13;8.88;;;;;;;;;;5072807;28;20559;-78
2022/08/23 00:36:00;;;;;;;17.23;8.82;;;;;;;;;;5070119;28;20040;-77
2022/08/23 00:38:26;;;;;;;15.07;7.93;;;;;;;;;;5055074;28;20076;-78
2022/08/23 00:40:52;;;;;;;11.50;7.50;;;;;;;;;;5075962;28;20517;-78
2022/08/23 00:49:08;;;;;;;9.98;6.53;;;;;;;;;;5075523;28;20084;-78
2022/08/23 00:51:38;;;;;;;7.63;5.63;;;;;;;;;;5075725;28;20037;-79
2022/08/23 00:54:04;;;;;;;8.68;4.55;;;;;;;;;;5076461;28;20046;-79
2022/08/23 00:56:33;;;;;;;6.88;5.13;;;;;;;;;;5078029;28;20041;-78
2022/08/23 00:59:02;;;;;;;6.05;4.70;;;;;;;;;;5078561;28;20059;-79
2022/08/23 01:01:28;;;;;;;8.07;5.93;;;;;;;;;;5063095;28;20068;-80
2022/08/23 01:03:56;;;;;;;8.85;5.28;;;;;;;;;;5079246;28;20048;-81
2022/08/23 01:06:25;;;;;;;6.22;4.75;;;;;;;;;;5060129;28;20048;-80
2022/08/23 01:08:57;;;;;;;7.07;4.78;;;;;;;;;;5061906;28;20562;-80
2022/08/23 01:11:26;;;;;;;6.53;4.85;;;;;;;;;;5080774;28;20060;-80
2022/08/23 01:13:59;;;;;;;8.27;6.00;;;;;;;;;;5059561;28;20402;-78
2022/08/23 01:16:36;;;;;;;9.80;6.65;;;;;;;;;;5076555;28;20079;-79
2022/08/23 01:19:04;;;;;;;9.18;6.15;;;;;;;;;;5078083;28;20080;-79
2022/08/23 01:21:43;;;;;;;12.35;7.25;;;;;;;;;;5079451;28;20040;-80
2022/08/23 01:24:09;;;;;;;11.25;7.50;;;;;;;;;;5077984;28;20044;-80
2022/08/23 01:26:35;;;;;;;10.25;6.70;;;;;;;;;;5079943;28;20044;-79
2022/08/23 01:29:04;;;;;;;8.95;5.30;;;;;;;;;;5056817;28;20049;-79
2022/08/23 01:31:30;;;;;;;9.05;6.00;;;;;;;;;;5079206;28;20073;-79
2022/08/23 01:34:01;;;;;;;10.13;6.30;;;;;;;;;;5078670;28;20048;-79
2022/08/23 01:36:27;;;;;;;8.35;6.57;;;;;;;;;;5077425;28;20040;-78
2022/08/23 01:38:53;;;;;;;8.93;5.70;;;;;;;;;;5072050;28;20076;-80
2022/08/23 01:41:19;;;;;;;7.38;5.65;;;;;;;;;;5077468;28;20056;-79
2022/08/23 01:43:45;;;;;;;9.45;6.60;;;;;;;;;;5074664;28;20040;-79
2022/08/23 01:46:16;;;;;;;7.88;6.07;;;;;;;;;;5077347;28;20040;-80
2022/08/23 01:48:44;;;;;;;8.88;5.95;;;;;;;;;;5078626;28;20410;-80
2022/08/23 01:51:11;;;;;;;7.50;5.13;;;;;;;;;;5080647;28;20055;-79
2022/08/23 01:53:37;;;;;;;7.22;5.00;;;;;;;;;;5075177;28;20040;-79
2022/08/23 01:56:04;;;;;;;7.70;3.95;;;;;;;;;;5059314;28;20048;-79
2022/08/23 01:58:31;;;;;;;5.60;3.38;;;;;;;;;;5074512;28;20041;-78
2022/08/23 02:00:57;;;;;;;5.32;3.20;;;;;;;;;;5078656;28;20037;-79
2022/08/23 02:03:23;;;;;;;7.05;4.80;;;;;;;;;;5058766;28;20445;-79
2022/08/23 02:05:49;;;;;;;6.00;4.95;;;;;;;;;;5076681;28;20052;-79
2022/08/23 02:10:59;;;;;;;7.20;5.07;;;;;;;;;;5076399;28;20093;-80
2022/08/23 02:13:26;;;;;;;6.90;5.53;;;;;;;;;;5057418;28;20045;-79
2022/08/23 02:15:52;;;;;;;7.32;5.68;;;;;;;;;;5077927;28;20524;-79
2022/08/23 02:18:19;;;;;;;8.73;5.07;;;;;;;;;;5059564;28;20053;-79
2022/08/23 02:20:49;;;;;;;7.45;5.10;;;;;;;;;;5060916;28;20048;-78
2022/08/23 02:23:15;;;;;;;7.47;4.85;;;;;;;;;;5078054;28;20079;-78
2022/08/23 02:25:42;;;;;;;5.15;4.22;;;;;;;;;;5074693;28;20513;-78
2022/08/23 02:28:08;;;;;;;7.53;4.60;;;;;;;;;;5074590;28;20036;-78
2022/08/23 02:30:35;;;;;;;5.82;4.07;;;;;;;;;;5076696;28;20045;-80
2022/08/23 02:33:03;;;;;;;6.53;4.80;;;;;;;;;;5077676;28;20040;-79
2022/08/23 02:35:32;;;;;;;6.68;4.60;;;;;;;;;;5076136;28;20036;-79
2022/08/23 02:38:02;;;;;;;6.32;4.20;;;;;;;;;;5074331;28;20044;-79
2022/08/23 02:40:28;;;;;;;6.15;3.75;;;;;;;;;;5078081;28;20044;-79
2022/08/23 02:42:54;;;;;;;4.55;2.55;;;;;;;;;;5077168;28;20045;-80
2022/08/23 02:45:20;;;;;;;3.38;2.05;;;;;;;;;;5077466;28;20049;-80
2022/08/23 02:47:46;;;;;;;3.53;1.90;;;;;;;;;;5059880;28;20044;-80
2022/08/23 02:50:15;;;;;;;3.90;2.00;;;;;;;;;;5057684;28;20490;-80
2022/08/23 02:52:41;;;;;;;4.25;2.38;;;;;;;;;;5077983;28;20044;-80
2022/08/23 02:55:08;;;;;;;3.63;1.70;;;;;;;;;;5076407;28;20043;-80
2022/08/23 02:57:34;;;;;;;3.13;1.58;;;;;;;;;;5077877;28;20462;-79
2022/08/23 03:00:04;;;;;;;3.35;1.88;;;;;;;;;;5077616;28;20080;-79
2022/08/23 03:02:30;;;;;;;3.20;1.85;;;;;;;;;;5077916;28;20044;-80
2022/08/23 03:04:56;;;;;;;3.70;1.98;;;;;;;;;;5058305;28;20048;-80
2022/08/23 03:07:22;;;;;;;4.45;2.40;;;;;;;;;;5073234;28;20410;-80
2022/08/23 03:09:48;;;;;;;4.95;2.50;;;;;;;;;;5058321;28;20040;-80
2022/08/23 03:12:15;;;;;;;6.95;2.90;;;;;;;;;;5056290;28;20563;-79
2022/08/23 03:14:41;;;;;;;5.15;2.92;;;;;;;;;;5060259;28;20060;-79
2022/08/23 03:17:07;;;;;;;5.05;3.67;;;;;;;;;;5071442;28;20044;-79
2022/08/23 03:19:34;;;;;;;6.13;4.40;;;;;;;;;;5075999;28;20036;-79
2022/08/23 03:22:02;;;;;;;5.53;4.53;;;;;;;;;;5076716;28;20048;-79
2022/08/23 03:24:28;;;;;;;5.28;4.28;;;;;;;;;;5054962;28;20613;-79
2022/08/23 03:26:54;;;;;;;5.05;4.20;;;;;;;;;;5049635;28;20253;-80
2022/08/23 03:29:20;;;;;;;5.43;3.97;;;;;;;;;;5053332;28;20044;-79
2022/08/23 03:31:46;;;;;;;5.05;3.80;;;;;;;;;;5075063;28;20101;-79
2022/08/23 03:34:13;;;;;;;4.50;3.03;;;;;;;;;;5076582;28;20375;-81
2022/08/23 03:36:39;;;;;;;3.83;2.17;;;;;;;;;;5072167;28;20036;-80
2022/08/23 03:39:06;;;;;;;4.30;2.58;;;;;;;;;;5052506;28;20040;-80
2022/08/23 03:41:32;;;;;;;4.97;2.97;;;;;;;;;;5077645;28;20054;-80
2022/08/23 03:43:58;;;;;;;5.88;3.38;;;;;;;;;;5075857;28;20037;-80
2022/08/23 03:46:24;;;;;;;5.50;2.90;;;;;;;;;;5077905;28;20043;-80
2022/08/23 03:48:58;;;;;;;4.10;2.35;;;;;;;;;;5075796;28;20530;-79
2022/08/23 03:51:24;;;;;;;5.60;2.70;;;;;;;;;;5076920;28;20087;-78
2022/08/23 03:53:54;;;;;;;4.32;2.67;;;;;;;;;;5076470;28;20071;-79
2022/08/23 03:56:29;;;;;;;5.05;2.38;;;;;;;;;;5074608;28;21047;-79
2022/08/23 03:58:55;;;;;;;4.38;2.45;;;;;;;;;;5075167;28;20040;-80
2022/08/23 04:01:22;;;;;;;5.43;2.80;;;;;;;;;;5077056;28;20109;-79
2022/08/23 04:03:48;;;;;;;4.70;3.17;;;;;;;;;;5075765;28;20552;-80
2022/08/23 04:06:15;;;;;;;4.63;3.30;;;;;;;;;;5074062;28;20119;-79
2022/08/23 04:08:41;;;;;;;4.55;2.78;;;;;;;;;;5056747;28;20055;-79
2022/08/23 04:11:08;;;;;;;6.53;3.42;;;;;;;;;;5075123;28;20044;-79
2022/08/23 04:13:35;;;;;;;6.07;4.38;;;;;;;;;;5057255;28;20048;-79
2022/08/23 04:16:02;;;;;;;8.93;6.13;;;;;;;;;;5076484;28;20050;-79
2022/08/23 04:18:30;;;;;;;9.55;6.03;;;;;;;;;;5056707;28;20098;-79
2022/08/23 04:20:57;;;;;;;9.52;5.70;;;;;;;;;;5074821;28;20071;-80
2022/08/23 04:23:24;;;;;;;7.97;6.00;;;;;;;;;;5074401;28;20036;-80
2022/08/23 04:25:50;;;;;;;8.02;6.20;;;;;;;;;;5070397;28;20049;-80
2022/08/23 04:28:17;;;;;;;9.68;7.18;;;;;;;;;;5072531;28;20857;-79
2022/08/23 04:30:45;;;;;;;11.30;8.10;;;;;;;;;;5068998;28;20506;-80
2022/08/23 04:33:12;;;;;;;12.40;9.40;;;;;;;;;;5057198;28;20055;-79
2022/08/23 04:35:38;;;;;;;13.52;10.73;;;;;;;;;;5074160;28;20041;-81
2022/08/23 04:38:04;;;;;;;12.40;11.10;;;;;;;;;;5070403;28;20040;-80
2022/08/23 04:43:15;;;;;;;11.50;10.30;;;;;;;;;;5052347;28;20075;-80
2022/08/23 04:45:41;;;;;;;12.10;10.13;;;;;;;;;;5073934;28;20040;-80
2022/08/23 04:48:08;;;;;;;11.60;8.98;;;;;;;;;;5056411;28;20040;-79
2022/08/23 04:50:35;;;;;;;12.38;7.15;;;;;;;;;;5074979;28;20139;-78
2022/08/23 04:53:01;;;;;;;7.53;6.50;;;;;;;;;;5072767;28;20410;-80
2022/08/23 04:55:27;;;;;;;8.38;6.82;;;;;;;;;;5075239;28;20093;-80
2022/08/23 04:57:53;;;;;;;10.35;7.07;;;;;;;;;;5074071;28;20123;-80
2022/08/23 05:00:20;;;;;;;8.25;7.20;;;;;;;;;;5074331;28;20063;-78
2022/08/23 05:02:46;;;;;;;9.63;7.50;;;;;;;;;;5072343;28;20041;-80
2022/08/23 05:05:12;;;;;;;8.70;7.05;;;;;;;;;;5055987;28;20094;-79
2022/08/23 05:07:38;;;;;;;10.90;6.70;;;;;;;;;;5071564;28;20442;-80
2022/08/23 05:10:09;;;;;;;7.97;6.68;;;;;;;;;;5075707;28;20497;-80
2022/08/23 05:12:35;;;;;;;7.95;6.63;;;;;;;;;;5074284;28;20060;-80
2022/08/23 05:15:01;;;;;;;12.35;8.30;;;;;;;;;;5076681;28;20118;-79
2022/08/23 05:17:27;;;;;;;13.65;11.57;;;;;;;;;;5076042;28;20048;-80
2022/08/23 05:19:56;;;;;;;12.95;10.48;;;;;;;;;;5077190;28;20127;-80
2022/08/23 05:22:22;;;;;;;15.40;11.43;;;;;;;;;;5073804;28;20041;-80
2022/08/23 05:24:48;;;;;;;15.75;11.95;;;;;;;;;;5075865;28;20048;-80
2022/08/23 05:27:14;;;;;;;14.27;11.75;;;;;;;;;;5074643;28;20047;-80
2022/08/23 05:29:40;;;;;;;13.63;11.80;;;;;;;;;;5071573;28;20087;-78
2022/08/23 05:32:06;;;;;;;12.00;10.70;;;;;;;;;;5072057;28;20051;-79
2022/08/23 05:34:32;;;;;;;11.90;10.15;;;;;;;;;;5053145;28;20445;-80
2022/08/23 05:36:58;;;;;;;13.02;9.55;;;;;;;;;;5074741;28;20049;-80
2022/08/23 05:39:24;;;;;;;12.15;9.57;;;;;;;;;;5077198;28;20037;-80
2022/08/23 05:41:50;;;;;;;11.77;9.05;;;;;;;;;;5079234;28;20080;-79
2022/08/23 05:44:20;;;;;;;12.57;8.88;;;;;;;;;;5058426;28;20119;-80
2022/08/23 05:46:46;;;;;;;13.60;8.50;;;;;;;;;;5042008;28;20501;-80
2022/08/23 05:49:11;;;;;;;11.80;8.45;;;;;;;;;;5060658;28;20037;-79
2022/08/23 05:51:37;;;;;;;15.65;8.00;;;;;;;;;;5079343;28;20045;-80
2022/08/23 05:54:06;;;;;;;10.82;7.70;;;;;;;;;;5079041;28;20057;-79
2022/08/23 05:56:34;;;;;;;10.80;7.57;;;;;;;;;;5078593;28;20056;-79
2022/08/23 05:59:02;;;;;;;11.02;7.80;;;;;;;;;;5076324;28;20047;-80
2022/08/23 06:01:29;;;;;;;12.85;7.70;;;;;;;;;;5046933;28;20153;-79
2022/08/23 06:03:55;;;;;;;9.07;7.07;;;;;;;;;;5059323;28;20075;-80
2022/08/23 06:06:21;;;;;;;12.35;7.68;;;;;;;;;;5078056;28;20036;-80
2022/08/23 06:08:48;;;;;;;14.15;7.45;;;;;;;;;;5059519;28;20071;-80
2022/08/23 06:11:18;;;;;;;11.05;7.63;;;;;;;;;;5078667;28;20536;-80
2022/08/23 06:13:44;;;;;;;;;;;;;;;;;;5060400;28;20049;-80
2022/08/23 06:16:11;;;;;;;11.98;7.20;;;;;;;;;;5078228;28;19927;-80
2022/08/23 06:18:37;;;;;;;11.68;7.10;;;;;;;;;;5079100;28;20077;-80
2022/08/23 06:21:05;;;;;;;11.25;7.00;;;;;;;;;;5043568;28;20059;-79
2022/08/23 06:23:32;;;;;;;10.70;7.35;;;;;;;;;;5059704;28;20456;-80
2022/08/23 06:25:58;;;;;;;10.00;6.82;;;;;;;;;;5075212;28;20457;-80
2022/08/23 06:28:25;;;;;;;10.93;6.47;;;;;;;;;;5076978;28;20384;-79
2022/08/23 06:30:54;;;;;;;12.55;6.97;;;;;;;;;;5058709;28;20040;-80
2022/08/23 06:33:20;;;;;;;11.93;6.90;;;;;;;;;;5056892;28;20093;-80
2022/08/23 06:35:47;;;;;;;10.38;6.93;;;;;;;;;;5048175;28;20445;-80
2022/08/23 06:38:13;;;;;;;12.63;7.40;;;;;;;;;;5072246;28;20090;-80
2022/08/23 06:40:40;;;;;;;9.20;6.57;;;;;;;;;;5053461;28;20054;-81
2022/08/23 06:43:05;;;;;;;12.52;7.30;;;;;;;;;;5077524;28;20058;-80
2022/08/23 06:45:32;;;;;;;9.75;7.03;;;;;;;;;;5078866;28;20128;-81
2022/08/23 06:47:58;;;;;;;10.88;6.60;;;;;;;;;;5077006;28;20091;-81
2022/08/23 06:50:24;;;;;;;9.55;6.00;;;;;;;;;;5078485;28;20483;-79
2022/08/23 06:52:54;;;;;;;11.40;7.10;;;;;;;;;;5078729;28;20048;-80
2022/08/23 06:55:20;;;;;;;11.45;6.60;;;;;;;;;;5078342;28;20052;-81
2022/08/23 06:57:46;;;;;;;12.18;6.82;;;;;;;;;;5067441;28;20070;-80
2022/08/23 07:00:12;;;;;;;10.07;6.30;;;;;;;;;;5077083;28;20041;-81
2022/08/23 07:02:38;;;;;;;10.45;6.10;;;;;;;;;;5076925;28;20100;-79
2022/08/23 07:05:05;;;;;;;10.60;6.50;;;;;;;;;;5077266;28;20045;-79
2022/08/23 07:07:31;;;;;;;10.80;6.38;;;;;;;;;;5077682;28;20379;-79
2022/08/23 07:09:57;;;;;;;10.63;6.22;;;;;;;;;;5055963;28;20117;-80
2022/08/23 07:12:23;;;;;;;10.20;5.90;;;;;;;;;;5071294;28;20052;-80
2022/08/23 07:14:49;;;;;;;10.40;5.72;;;;;;;;;;5077748;28;20180;-80
2022/08/23 07:17:15;;;;;;;13.60;5.85;;;;;;;;;;5076394;28;20553;-80
2022/08/23 07:19:42;;;;;;;10.05;6.00;;;;;;;;;;5078987;28;20040;-79
2022/08/23 07:22:09;;;;;;;13.18;5.35;;;;;;;;;;5077635;28;20539;-80
2022/08/23 07:24:36;;;;;;;9.13;5.07;;;;;;;;;;5077813;28;20548;-79
2022/08/23 07:27:08;;;;;;;11.30;5.47;;;;;;;;;;5077446;28;20090;-80
2022/08/23 07:29:35;;;;;;;10.60;5.68;;;;;;;;;;5076930;28;20037;-80
2022/08/23 07:32:02;;;;;;;7.95;4.78;;;;;;;;;;5058920;28;20048;-78
2022/08/23 07:34:28;;;;;;;9.02;5.00;;;;;;;;;;5079119;28;20049;-79
2022/08/23 07:36:54;;;;;;;8.32;4.50;;;;;;;;;;5078420;28;20080;-78
2022/08/23 07:39:21;;;;;;;8.30;4.70;;;;;;;;;;5078144;28;20056;-78
2022/08/23 07:41:48;;;;;;;10.10;4.82;;;;;;;;;;5079484;28;20166;-78
2022/08/23 07:44:14;;;;;;;10.25;4.68;;;;;;;;;;5067786;28;20490;-79
2022/08/23 07:46:42;;;;;;;7.93;4.70;;;;;;;;;;5076757;28;20514;-79
2022/08/23 07:49:09;;;;;;;10.75;5.10;;;;;;;;;;5076891;28;20036;-78
2022/08/23 07:51:36;;;;;;;8.90;5.32;;;;;;;;;;5073527;28;20045;-79
2022/08/23 07:54:04;;;;;;;11.02;4.95;;;;;;;;;;5073197;28;20049;-79
2022/08/23 07:56:30;;;;;;;9.57;5.20;;;;;;;;;;5077311;28;20048;-79
2022/08/23 07:58:56;;;;;;;9.43;5.03;;;;;;;;;;5078635;28;20524;-79
2022/08/23 08:01:25;;;;;;;10.02;4.95;;;;;;;;;;5077059;28;20066;-80
2022/08/23 08:03:53;;;;;;;10.75;4.90;;;;;;;;;;5076374;28;20131;-80
2022/08/23 08:06:21;;;;;;;8.90;4.55;;;;;;;;;;5076808;28;20048;-78
2022/08/23 08:08:47;;;;;;;7.60;4.70;;;;;;;;;;5077597;28;20044;-79
2022/08/23 08:11:15;;;;;;;10.38;4.90;;;;;;;;;;5077150;28;20036;-77
2022/08/23 08:13:42;;;;;;;9.65;4.60;;;;;;;;;;5078380;28;20068;-79
2022/08/23 08:16:08;;;;;;;8.73;5.20;;;;;;;;;;5076486;28;20115;-78
2022/08/23 08:18:35;;;;;;;9.05;4.57;;;;;;;;;;5076790;28;20045;-79
2022/08/23 08:21:02;;;;;;;13.52;5.22;;;;;;;;;;5077224;28;20076;-79
2022/08/23 08:23:28;;;;;;;9.60;4.50;;;;;;;;;;5058084;28;20189;-79
2022/08/23 08:26:01;;;;;;;8.70;4.90;;;;;;;;;;5076334;28;20048;-78
2022/08/23 08:28:27;;;;;;;9.25;4.75;;;;;;;;;;5076324;28;20040;-78
2022/08/23 08:30:53;;;;;;;10.55;4.47;;;;;;;;;;5075373;28;20559;-80
2022/08/23 08:33:19;;;;;;;7.63;4.70;;;;;;;;;;5077863;28;20040;-79
2022/08/23 08:35:48;;;;;;;9.77;4.63;;;;;;;;;;5058460;28;20094;-78
2022/08/23 08:38:14;;;;;;;8.88;4.57;;;;;;;;;;5059145;28;20094;-79
2022/08/23 08:40:41;;;;;;;9.63;5.45;;;;;;;;;;5075389;28;20044;-78
2022/08/23 08:43:12;;;;;;;9.88;5.50;;;;;;;;;;5075430;28;20044;-80
2022/08/23 08:45:45;;;;;;;10.10;4.95;;;;;;;;;;5076996;28;20097;-79
2022/08/23 08:48:14;;;;;;;11.10;4.90;;;;;;;;;;5076436;28;20491;-79
2022/08/23 08:50:42;;;;;;;9.15;5.40;;;;;;;;;;5076454;28;20533;-79
2022/08/23 08:53:12;;;;;;;9.13;5.07;;;;;;;;;;5077113;28;20045;-79
2022/08/23 08:55:40;;;;;;;11.15;4.93;;;;;;;;;;5075558;28;20552;-79
2022/08/23 08:58:13;;;;;;;8.75;4.50;;;;;;;;;;5075417;28;20048;-79
2022/08/23 09:00:39;;;;;;;9.30;4.72;;;;;;;;;;5058633;28;20044;-79
2022/08/23 09:03:10;;;;;;;10.40;5.20;;;;;;;;;;5059370;28;20041;-78
2022/08/23 09:05:38;;;;;;;8.52;4.25;;;;;;;;;;5075903;28;20040;-79
2022/08/23 09:08:04;;;;;;;9.80;4.78;;;;;;;;;;5076840;28;20124;-79
2022/08/23 09:10:48;;;;;;;10.48;4.80;;;;;;;;;;5076503;28;20495;-80
2022/08/23 09:13:17;;;;;;;7.88;5.07;;;;;;;;;;5075195;28;20455;-79
2022/08/23 09:15:56;;;;;;;8.60;5.10;;;;;;;;;;5079326;28;20055;-80
2022/08/23 09:18:23;;;;;;;9.07;5.45;;;;;;;;;;5080113;28;20104;-79
2022/08/23 09:20:51;;;;;;;8.45;5.20;;;;;;;;;;5069198;28;20052;-79
2022/08/23 09:23:21;;;;;;;8.07;4.50;;;;;;;;;;5032395;28;20051;-79
2022/08/23 09:25:51;;;;;;;14.45;5.00;;;;;;;;;;5079477;28;20416;-78
2022/08/23 09:28:20;;;;;;;10.57;4.93;;;;;;;;;;5061726;28;20036;-78
2022/08/23 09:30:51;;;;;;;9.48;4.32;;;;;;;;;;5080614;28;20037;-79
2022/08/23 09:33:19;;;;;;;8.50;4.82;;;;;;;;;;5080320;28;20105;-79
2022/08/23 09:36:01;;;;;;;8.50;4.82;;;;;;;;;;5080487;28;20144;-79
2022/08/23 09:38:28;;;;;;;8.80;5.63;;;;;;;;;;5078842;28;20048;-79
2022/08/23 09:40:55;;;;;;;10.60;5.50;;;;;;;;;;5062621;28;20041;-80
2022/08/23 09:43:24;;;;;;;11.07;5.30;;;;;;;;;;5079893;28;20044;-78
2022/08/23 09:45:50;;;;;;;9.00;5.38;;;;;;;;;;5075224;28;20048;-79
2022/08/23 09:48:35;;;;;;;9.32;4.75;;;;;;;;;;5079120;28;20047;-79
2022/08/23 09:51:19;;;;;;;10.00;5.90;;;;;;;;;;5078540;28;20490;-79
2022/08/23 09:53:52;;;;;;;7.78;4.45;;;;;;;;;;5079936;28;20044;-79
2022/08/23 09:56:23;;;;;;;8.95;5.00;;;;;;;;;;5079607;28;20040;-78
2022/08/23 09:58:52;;;;;;;7.75;4.00;;;;;;;;;;5077842;28;20044;-78
2022/08/23 10:01:20;;;;;;;10.27;5.00;;;;;;;;;;5080271;28;20112;-78
2022/08/23 10:03:46;;;;;;;9.73;4.50;;;;;;;;;;5080456;28;20041;-79
2022/08/23 10:06:27;;;;;;;9.35;4.43;;;;;;;;;;5079674;28;20056;-79
2022/08/23 10:08:54;;;;;;;;;;;;;;;;;;5080393;28;20036;-79
2022/08/23 10:11:22;;;;;;;8.65;4.55;;;;;;;;;;5076486;28;19924;-80
2022/08/23 10:13:49;;;;;;;10.30;4.03;;;;;;;;;;5079627;28;20495;-80
2022/08/23 10:16:27;;;;;;;9.68;4.65;;;;;;;;;;5080903;28;20049;-79
2022/08/23 10:19:09;;;;;;;7.72;3.50;;;;;;;;;;5080584;28;20048;-80
2022/08/23 10:21:35;;;;;;;9.68;3.22;;;;;;;;;;5079691;28;20044;-80
2022/08/23 10:24:14;;;;;;;10.73;3.85;;;;;;;;;;5062860;28;20056;-79
2022/08/23 10:26:52;;;;;;;7.88;2.80;;;;;;;;;;5074809;28;20497;-79
2022/08/23 10:29:36;;;;;;;9.10;3.30;;;;;;;;;;5061401;28;20047;-80
2022/08/23 10:32:05;;;;;;;9.02;2.80;;;;;;;;;;5079024;28;20089;-80
2022/08/23 10:34:34;;;;;;;10.45;3.50;;;;;;;;;;5062800;28;20494;-80
2022/08/23 10:37:06;;;;;;;8.23;3.05;;;;;;;;;;5044438;28;20387;-79
2022/08/23 10:39:32;;;;;;;7.47;2.67;;;;;;;;;;5077496;28;20520;-80
2022/08/23 10:42:04;;;;;;;6.85;3.03;;;;;;;;;;5078531;28;20055;-79
2022/08/23 10:44:43;;;;;;;10.40;2.90;;;;;;;;;;5061067;28;20053;-79
2022/08/23 10:47:14;;;;;;;6.47;2.50;;;;;;;;;;5078282;28;20048;-79
2022/08/23 10:49:41;;;;;;;6.43;2.70;;;;;;;;;;5077047;28;20052;-78
2022/08/23 10:52:10;;;;;;;8.90;2.83;;;;;;;;;;5079188;28;20126;-80
2022/08/23 10:54:45;;;;;;;8.60;2.95;;;;;;;;;;5077730;28;20040;-80
2022/08/23 10:57:15;;;;;;;7.13;2.90;;;;;;;;;;5061008;28;20506;-80
2022/08/23 10:59:42;;;;;;;11.38;3.25;;;;;;;;;;5078059;28;20048;-80
2022/08/23 11:02:26;;;;;;;7.20;3.00;;;;;;;;;;5078067;28;20048;-80
2022/08/23 11:05:06;;;;;;;8.45;3.28;;;;;;;;;;5059450;28;20066;-78
2022/08/23 11:07:33;;;;;;;9.25;3.30;;;;;;;;;;5077587;28;20462;-79
2022/08/23 11:10:09;;;;;;;7.72;3.08;;;;;;;;;;5077198;28;21269;-78
2022/08/23 11:12:49;;;;;;;7.63;2.92;;;;;;;;;;5076237;28;20497;-79
2022/08/23 11:15:26;;;;;;;6.75;2.70;;;;;;;;;;5077538;28;20040;-80
2022/08/23 11:17:57;;;;;;;6.78;2.95;;;;;;;;;;5081293;28;20040;-80
2022/08/23 11:20:42;;;;;;;10.48;3.00;;;;;;;;;;5058660;28;20075;-80
2022/08/23 11:23:09;;;;;;;8.48;2.65;;;;;;;;;;5067179;28;20041;-79
2022/08/23 11:25:39;;;;;;;6.90;2.92;;;;;;;;;;5070203;28;20045;-81
2022/08/23 11:28:24;;;;;;;9.18;2.72;;;;;;;;;;5077419;28;20402;-79
2022/08/23 11:30:58;;;;;;;10.10;2.95;;;;;;;;;;5059154;28;20396;-81
2022/08/23 11:33:45;;;;;;;9.77;2.90;;;;;;;;;;5076708;28;20534;-79
2022/08/23 11:36:20;;;;;;;9.50;2.67;;;;;;;;;;5076742;28;20448;-80
2022/08/23 11:38:46;;;;;;;5.95;2.50;;;;;;;;;;5077228;28;20170;-81
2022/08/23 11:41:18;;;;;;;8.00;2.70;;;;;;;;;;5077008;28;20048;-80
2022/08/23 11:43:56;;;;;;;7.07;3.10;;;;;;;;;;5059200;28;20040;-79
2022/08/23 11:46:25;;;;;;;6.75;2.97;;;;;;;;;;5073702;28;20072;-80
2022/08/23 11:49:10;;;;;;;7.53;3.00;;;;;;;;;;5076532;28;20088;-81
2022/08/23 11:51:45;;;;;;;8.60;2.72;;;;;;;;;;5058019;28;20048;-80
2022/08/23 11:54:14;;;;;;;7.50;3.08;;;;;;;;;;5076876;28;20072;-80
2022/08/23 11:56:40;;;;;;;7.70;2.50;;;;;;;;;;5076197;28;20052;-80
2022/08/23 11:59:42;;;;;;;6.70;2.60;;;;;;;;;;5059383;28;20049;-80
2022/08/23 12:02:31;;;;;;;9.05;2.60;;;;;;;;;;4995376;28;20101;-78
2022/08/23 12:04:59;;;;;;;7.43;2.22;;;;;;;;;;4994684;28;20058;-80
2022/08/23 12:07:45;;;;;;;6.80;3.00;;;;;;;;;;4995090;28;20064;-81
2022/08/23 12:10:14;;;;;;;7.82;2.30;;;;;;;;;;4958259;28;20069;-80
2022/08/23 12:12:41;;;;;;;6.70;2.78;;;;;;;;;;4987933;28;20062;-81
2022/08/23 12:15:09;;;;;;;7.38;2.75;;;;;;;;;;4994421;28;20046;-80
2022/08/23 12:17:35;;;;;;;7.07;2.60;;;;;;;;;;4995213;28;20177;-81
2022/08/23 12:20:08;;;;;;;7.60;2.83;;;;;;;;;;4994398;28;20197;-80
2022/08/23 12:22:53;;;;;;;8.65;2.22;;;;;;;;;;4994435;28;20051;-80
2022/08/23 12:25:20;;;;;;;9.07;3.00;;;;;;;;;;4995318;28;20054;-81
2022/08/23 12:27:48;;;;;;;7.47;2.60;;;;;;;;;;4979676;28;20050;-80
2022/08/23 12:30:21;;;;;;;8.27;2.63;;;;;;;;;;4994434;28;20456;-80
2022/08/23 12:32:47;;;;;;;5.63;2.22;;;;;;;;;;4996367;28;20073;-80
2022/08/23 12:35:33;;;;;;;8.90;3.08;;;;;;;;;;4985431;28;20494;-80
2022/08/23 12:38:13;;;;;;;7.70;3.00;;;;;;;;;;5066418;28;20101;-80
2022/08/23 12:40:44;;;;;;;6.68;2.78;;;;;;;;;;5072525;28;20044;-80
2022/08/23 12:43:13;;;;;;;7.53;2.38;;;;;;;;;;5077472;28;20050;-80
2022/08/23 12:45:44;;;;;;;7.15;2.90;;;;;;;;;;5076337;28;20086;-80
2022/08/23 12:48:11;;;;;;;9.57;2.50;;;;;;;;;;5076442;28;20041;-81
2022/08/23 12:50:39;;;;;;;5.93;2.40;;;;;;;;;;5075092;28;20041;-79
2022/08/23 12:53:07;;;;;;;7.18;2.53;;;;;;;;;;5076925;28;20043;-81
2022/08/23 12:55:39;;;;;;;6.90;2.50;;;;;;;;;;5076310;28;20051;-80
2022/08/23 12:58:06;;;;;;;10.55;3.00;;;;;;;;;;5077173;28;20120;-80
2022/08/23 13:00:42;;;;;;;7.13;2.90;;;;;;;;;;5058214;28;20036;-80
2022/08/23 13:03:08;;;;;;;6.72;2.53;;;;;;;;;;5058598;28;20111;-79
2022/08/23 13:05:34;;;;;;;7.38;2.65;;;;;;;;;;5074910;28;20036;-79
2022/08/23 13:08:02;;;;;;;9.68;2.88;;;;;;;;;;5077797;28;20058;-80
2022/08/23 13:10:28;;;;;;;13.70;2.90;;;;;;;;;;5074300;28;20112;-79
2022/08/23 13:12:54;;;;;;;6.90;2.67;;;;;;;;;;5076253;28;20055;-79
2022/08/23 13:15:39;;;;;;;8.10;2.53;;;;;;;;;;5055289;28;20047;-81
2022/08/23 13:18:05;;;;;;;6.28;2.90;;;;;;;;;;5070816;28;20736;-79
2022/08/23 13:20:31;;;;;;;7.15;2.70;;;;;;;;;;5067293;28;20065;-80
2022/08/23 13:23:00;;;;;;;8.50;2.90;;;;;;;;;;5074226;28;20044;-80
2022/08/23 13:25:28;;;;;;;7.15;2.58;;;;;;;;;;5069732;28;20521;-80
2022/08/23 13:28:05;;;;;;;8.68;3.05;;;;;;;;;;5055801;28;20094;-78
2022/08/23 13:30:36;;;;;;;7.70;2.97;;;;;;;;;;5074320;28;20052;-79
2022/08/23 13:33:02;;;;;;;;;;;;;;;;;;5074097;28;20044;-81
2022/08/23 13:35:31;;;;;;;8.75;2.95;;;;;;;;;;5075003;28;20020;-79
2022/08/23 13:38:08;;;;;;;6.63;2.58;;;;;;;;;;5074671;28;20044;-80
2022/08/23 13:40:40;;;;;;;6.72;2.80;;;;;;;;;;5069414;28;20434;-81
2022/08/23 13:43:07;;;;;;;9.18;2.75;;;;;;;;;;5072035;28;20425;-82
2022/08/23 13:45:35;;;;;;;9.88;3.00;;;;;;;;;;5074098;28;20446;-79
2022/08/23 13:48:07;;;;;;;8.30;2.70;;;;;;;;;;5072880;28;20123;-81
2022/08/23 13:50:34;;;;;;;6.60;2.63;;;;;;;;;;5072183;28;20049;-81
2022/08/23 13:53:00;;;;;;;8.13;2.75;;;;;;;;;;5070607;28;20036;-80
2022/08/23 13:55:27;;;;;;;9.02;2.63;;;;;;;;;;5075444;28;20045;-80
2022/08/23 13:57:54;;;;;;;7.50;2.72;;;;;;;;;;5072964;28;20045;-81
2022/08/23 14:00:21;;;;;;;7.75;2.80;;;;;;;;;;5058408;28;20048;-80
2022/08/23 14:02:47;;;;;;;10.27;2.80;;;;;;;;;;5059012;28;20158;-79
2022/08/23 14:05:15;;;;;;;8.32;2.80;;;;;;;;;;5078285;28;20051;-80
2022/08/23 14:07:41;;;;;;;8.40;2.90;;;;;;;;;;5078423;28;20048;-80
2022/08/23 14:10:07;;;;;;;9.85;2.78;;;;;;;;;;5079550;28;20059;-80
2022/08/23 14:12:34;;;;;;;7.05;2.60;;;;;;;;;;5079031;28;20110;-80
2022/08/23 14:15:01;;;;;;;8.38;2.90;;;;;;;;;;5078933;28;20056;-80
2022/08/23 14:17:27;;;;;;;6.85;3.05;;;;;;;;;;5059433;28;20071;-80
2022/08/23 14:19:53;;;;;;;5.85;2.42;;;;;;;;;;5077976;28;20041;-80
2022/08/23 14:22:19;;;;;;;6.15;2.78;;;;;;;;;;5053101;28;20101;-80
2022/08/23 14:24:46;;;;;;;8.57;3.00;;;;;;;;;;5065595;28;20114;-80
2022/08/23 14:27:12;;;;;;;6.93;2.92;;;;;;;;;;5070152;28;20032;-82
2022/08/23 14:29:38;;;;;;;9.27;3.30;;;;;;;;;;5073831;28;20094;-81
2022/08/23 14:32:04;;;;;;;8.60;2.75;;;;;;;;;;5068006;28;20494;-80
2022/08/23 14:34:30;;;;;;;7.55;2.88;;;;;;;;;;5071223;28;20784;-81
2022/08/23 14:36:57;;;;;;;8.18;2.80;;;;;;;;;;5051019;28;20037;-81
2022/08/23 14:39:23;;;;;;;6.57;2.88;;;;;;;;;;5069302;28;20124;-80
2022/08/23 14:41:49;;;;;;;9.25;2.97;;;;;;;;;;5070567;28;20125;-81
2022/08/23 14:44:16;;;;;;;6.88;2.90;;;;;;;;;;5064460;28;20047;-81
2022/08/23 14:46:45;;;;;;;8.73;2.90;;;;;;;;;;5046220;28;20051;-81
2022/08/23 14:49:12;;;;;;;7.22;2.80;;;;;;;;;;5064478;28;20093;-81
2022/08/23 14:51:40;;;;;;;7.93;2.95;;;;;;;;;;5064189;28;20045;-80
2022/08/23 14:54:07;;;;;;;7.93;2.75;;;;;;;;;;5070839;28;20040;-80
2022/08/23 14:56:34;;;;;;;6.38;3.15;;;;;;;;;;5067813;28;20513;-81
2022/08/23 14:59:00;;;;;;;5.35;2.63;;;;;;;;;;5065676;28;20037;-80